Terminal Aerodrome Forecast
Issued by NWS Cleveland, OH

Home | Current Version | Previous Version | Graphics & Text | Print | Product List | Glossary Off
Versions: 1 2 3 4 5 6 7 8 9 10 11 12 13 14 15 16 17 18

092
FTUS41 KCLE 291205 AAA
TAFCAK
TAF AMD
KCAK 291205Z 2912/3012 04008KT 2SM BR BKN004
      TEMPO 2912/2913 3/4SM BR OVC002
     FM291300 04008KT P6SM SCT015
      TEMPO 2913/2915 BKN015
     FM291500 02008KT P6SM SCT035
     FM300000 03003KT P6SM SCT250=

USA.gov is the U.S. government's official web portal to all federal, state and local government web resources and services.